createdAt,value
2017-06-16T00:00:56.310Z,42.20
2017-06-16T00:03:23.856Z,42.20
2017-06-16T00:05:51.372Z,42.20
2017-06-16T00:08:18.913Z,42.20
2017-06-16T00:10:46.439Z,42.30
2017-06-16T00:13:13.977Z,42.20
2017-06-16T00:15:41.488Z,42.20
2017-06-16T00:18:09.041Z,42.20
2017-06-16T00:20:36.624Z,42.20
2017-06-16T00:23:04.146Z,42.20
2017-06-16T00:25:31.680Z,42.20
2017-06-16T00:27:59.201Z,42.20
2017-06-16T00:30:26.736Z,42.20
2017-06-16T00:32:54.260Z,42.20
2017-06-16T00:35:21.800Z,42.20
2017-06-16T00:37:49.332Z,42.20
2017-06-16T00:40:16.899Z,42.20
2017-06-16T00:42:44.415Z,42.20
2017-06-16T00:45:11.933Z,42.20
2017-06-16T00:47:39.534Z,42.10
2017-06-16T00:50:07.046Z,42.20
2017-06-16T00:52:34.610Z,42.10
2017-06-16T00:55:02.128Z,42.20
2017-06-16T00:57:29.677Z,42.20
2017-06-16T00:59:57.184Z,42.10
2017-06-16T01:02:24.744Z,42.10
2017-06-16T01:04:52.265Z,42.10
2017-06-16T01:07:19.794Z,42.10
2017-06-16T01:09:47.324Z,42.10
2017-06-16T01:12:14.871Z,42.10
2017-06-16T01:14:42.410Z,42.00
2017-06-16T01:17:09.957Z,42.00
2017-06-16T01:19:37.520Z,42.00
2017-06-16T01:22:05.114Z,42.00
2017-06-16T01:24:33.437Z,42.20
2017-06-16T01:27:00.988Z,42.00
2017-06-16T01:29:28.553Z,42.00
2017-06-16T01:31:56.075Z,42.10
2017-06-16T01:34:23.618Z,42.00
2017-06-16T01:36:51.181Z,42.00
2017-06-16T01:39:18.754Z,42.10
2017-06-16T01:41:46.316Z,42.10
2017-06-16T01:44:13.836Z,42.10
2017-06-16T01:46:41.368Z,42.10
2017-06-16T01:49:08.930Z,42.10
2017-06-16T01:51:36.490Z,42.10
2017-06-16T01:54:04.013Z,42.10
2017-06-16T01:56:31.572Z,42.10
2017-06-16T01:58:59.901Z,42.10
2017-06-16T02:01:27.454Z,42.10
2017-06-16T02:03:55.010Z,42.10
2017-06-16T02:06:22.579Z,42.10
2017-06-16T02:08:50.138Z,42.20
2017-06-16T02:11:17.723Z,42.20
2017-06-16T02:13:45.269Z,42.20
2017-06-16T02:16:12.845Z,42.20
2017-06-16T02:18:40.418Z,42.10
2017-06-16T02:21:07.961Z,42.20
2017-06-16T02:23:35.493Z,42.30
2017-06-16T02:26:03.036Z,42.30
2017-06-16T02:28:30.561Z,42.30
2017-06-16T02:30:58.138Z,42.20
2017-06-16T02:33:25.684Z,42.20
2017-06-16T02:35:53.245Z,42.20
2017-06-16T02:38:20.796Z,42.30
2017-06-16T02:40:48.366Z,42.20
2017-06-16T02:43:15.914Z,42.30
2017-06-16T02:45:43.456Z,42.20
2017-06-16T02:48:11.020Z,42.20
2017-06-16T02:50:38.580Z,42.30
2017-06-16T02:53:06.144Z,42.20
2017-06-16T02:55:33.674Z,42.20
2017-06-16T02:58:01.453Z,42.20
2017-06-16T03:00:29.136Z,42.10
2017-06-16T03:02:56.693Z,42.20
2017-06-16T03:05:24.281Z,42.20
2017-06-16T03:07:51.863Z,42.10
2017-06-16T03:10:19.389Z,42.10
2017-06-16T03:12:46.985Z,42.10
2017-06-16T03:15:14.509Z,42.20
2017-06-16T03:17:42.041Z,42.20
2017-06-16T03:20:09.600Z,42.10
2017-06-16T03:22:42.888Z,42.00
2017-06-16T03:25:10.445Z,42.10
2017-06-16T03:27:37.968Z,42.20
2017-06-16T03:30:05.546Z,42.10
2017-06-16T03:32:33.067Z,42.10
2017-06-16T03:35:00.622Z,42.00
2017-06-16T03:37:28.190Z,42.00
2017-06-16T03:39:55.749Z,42.00
2017-06-16T03:42:23.311Z,42.00
2017-06-16T03:44:50.842Z,42.00
2017-06-16T03:47:18.445Z,42.00
2017-06-16T03:49:45.982Z,41.90
2017-06-16T03:52:13.578Z,41.90
2017-06-16T03:54:41.135Z,42.00
2017-06-16T03:57:08.692Z,41.90
2017-06-16T03:59:36.246Z,41.90
2017-06-16T04:02:03.765Z,41.90
2017-06-16T04:04:31.317Z,41.90
2017-06-16T04:06:58.854Z,41.80
2017-06-16T04:09:26.425Z,41.80
2017-06-16T04:11:53.941Z,41.80
2017-06-16T04:14:21.465Z,41.80
2017-06-16T04:16:49.009Z,41.80
2017-06-16T04:19:16.568Z,41.70
2017-06-16T04:21:44.133Z,41.80
2017-06-16T04:24:11.674Z,41.80
2017-06-16T04:26:39.220Z,41.80
2017-06-16T04:29:06.760Z,41.80
2017-06-16T04:31:34.349Z,41.80
2017-06-16T04:34:01.893Z,41.70
2017-06-16T04:36:29.453Z,41.70
2017-06-16T04:38:57.017Z,41.60
2017-06-16T04:41:24.546Z,41.60
2017-06-16T04:43:52.093Z,41.60
2017-06-16T04:46:19.613Z,41.50
2017-06-16T04:48:47.148Z,41.50
2017-06-16T04:51:14.696Z,41.40
2017-06-16T04:53:42.264Z,41.40
2017-06-16T04:56:09.777Z,41.20
2017-06-16T04:58:37.301Z,41.20
2017-06-16T05:01:04.862Z,41.20
2017-06-16T05:03:32.416Z,41.20
2017-06-16T05:05:59.965Z,41.80
2017-06-16T05:08:27.492Z,41.20
2017-06-16T05:10:55.028Z,41.30
2017-06-16T05:13:22.554Z,41.30
2017-06-16T05:15:50.097Z,41.30
2017-06-16T05:18:17.720Z,41.30
2017-06-16T05:20:45.284Z,41.30
2017-06-16T05:23:18.398Z,41.30
2017-06-16T05:25:45.932Z,41.30
2017-06-16T05:28:13.463Z,41.30
2017-06-16T05:30:40.980Z,41.30
2017-06-16T05:33:08.524Z,41.20
2017-06-16T05:35:36.046Z,41.20
2017-06-16T05:38:03.605Z,41.10
2017-06-16T05:40:31.896Z,41.10
2017-06-16T05:42:59.457Z,41.00
2017-06-16T05:45:27.010Z,41.00
2017-06-16T05:47:54.532Z,41.00
2017-06-16T05:50:22.100Z,41.00
2017-06-16T05:52:49.617Z,41.00
2017-06-16T05:55:17.157Z,40.90
2017-06-16T05:57:44.680Z,40.90
2017-06-16T06:00:12.229Z,40.90
2017-06-16T06:02:39.752Z,41.00
2017-06-16T06:05:07.277Z,41.00
2017-06-16T06:07:34.825Z,40.90
2017-06-16T06:10:02.350Z,40.90
2017-06-16T06:12:29.890Z,40.90
2017-06-16T06:14:57.425Z,40.90
2017-06-16T06:17:24.985Z,40.90
2017-06-16T06:19:52.537Z,40.80
2017-06-16T06:22:20.091Z,40.80
2017-06-16T06:24:47.652Z,40.80
2017-06-16T06:27:15.225Z,40.70
2017-06-16T06:29:42.763Z,40.70
2017-06-16T06:32:10.293Z,40.70
2017-06-16T06:34:37.832Z,40.60
2017-06-16T06:37:05.358Z,40.60
2017-06-16T06:39:32.918Z,40.70
2017-06-16T06:42:00.439Z,40.60
2017-06-16T06:44:28.004Z,40.60
2017-06-16T06:46:55.539Z,40.50
2017-06-16T06:49:23.131Z,40.60
2017-06-16T06:51:50.655Z,40.50
2017-06-16T06:54:18.202Z,40.40
2017-06-16T06:56:45.766Z,40.40
2017-06-16T06:59:13.343Z,40.30
2017-06-16T07:01:40.881Z,40.20
2017-06-16T07:04:08.407Z,40.10
2017-06-16T07:06:35.965Z,40.10
2017-06-16T07:09:03.506Z,40.00
2017-06-16T07:11:31.058Z,39.90
2017-06-16T07:13:58.588Z,39.80
2017-06-16T07:16:26.117Z,39.50
2017-06-16T07:18:53.684Z,39.80
2017-06-16T07:21:21.223Z,39.40
2017-06-16T07:23:48.766Z,39.50
2017-06-16T07:26:16.293Z,39.50
2017-06-16T07:28:43.828Z,39.30
2017-06-16T07:31:11.383Z,39.10
2017-06-16T07:33:38.937Z,38.90
2017-06-16T07:36:06.460Z,38.80
2017-06-16T07:38:33.990Z,38.70
2017-06-16T07:41:01.521Z,38.60
2017-06-16T07:43:29.057Z,38.50
2017-06-16T07:45:56.597Z,38.40
2017-06-16T07:48:24.894Z,38.10
2017-06-16T07:50:52.453Z,38.00
2017-06-16T07:53:19.977Z,38.10
2017-06-16T07:55:47.521Z,38.20
2017-06-16T07:58:15.057Z,38.10
2017-06-16T08:00:42.604Z,38.00
2017-06-16T08:03:10.153Z,37.90
2017-06-16T08:05:37.685Z,37.70
2017-06-16T08:08:05.229Z,37.60
2017-06-16T08:10:32.753Z,37.60
2017-06-16T08:13:00.308Z,37.40
2017-06-16T08:15:27.865Z,37.20
2017-06-16T08:17:55.422Z,37.10
2017-06-16T08:20:22.936Z,37.00
2017-06-16T08:22:50.493Z,37.00
2017-06-16T08:25:18.053Z,37.00
2017-06-16T08:27:45.596Z,36.90
2017-06-16T08:30:13.147Z,36.80
2017-06-16T08:32:40.674Z,36.60
2017-06-16T08:35:08.226Z,36.50
2017-06-16T08:37:35.757Z,36.40
2017-06-16T08:40:03.298Z,36.20
2017-06-16T08:42:30.846Z,36.20
2017-06-16T08:44:58.425Z,36.30
2017-06-16T08:47:25.944Z,36.10
2017-06-16T08:49:53.468Z,35.90
2017-06-16T08:52:20.998Z,35.80
2017-06-16T08:54:48.519Z,35.80
2017-06-16T08:57:16.053Z,35.70
2017-06-16T08:59:43.580Z,35.70
2017-06-16T09:02:11.130Z,36.00
2017-06-16T09:04:38.654Z,36.30
2017-06-16T09:07:06.230Z,36.40
2017-06-16T09:09:33.767Z,36.60
2017-06-16T09:12:01.294Z,36.70
2017-06-16T09:14:28.830Z,36.80
2017-06-16T09:16:56.376Z,36.60
2017-06-16T09:19:23.920Z,36.20
2017-06-16T09:21:51.465Z,36.00
2017-06-16T09:24:19.057Z,35.60
2017-06-16T09:26:46.597Z,35.50
2017-06-16T09:29:14.121Z,35.50
2017-06-16T09:31:41.666Z,35.00
2017-06-16T09:34:09.201Z,34.80
2017-06-16T09:36:36.765Z,34.70
2017-06-16T09:39:04.301Z,34.60
2017-06-16T09:41:31.866Z,34.40
2017-06-16T09:43:59.384Z,34.20
2017-06-16T09:46:26.897Z,33.90
2017-06-16T09:48:54.476Z,33.70
2017-06-16T09:51:22.029Z,33.70
2017-06-16T09:53:49.582Z,33.70
2017-06-16T09:56:17.096Z,33.90
2017-06-16T09:58:44.644Z,34.00
2017-06-16T10:01:12.173Z,34.10
2017-06-16T10:03:39.700Z,34.10
2017-06-16T10:06:07.259Z,34.20
2017-06-16T10:08:34.792Z,34.40
2017-06-16T10:11:02.353Z,34.60
2017-06-16T10:13:29.902Z,35.00
2017-06-16T10:15:57.474Z,35.40
2017-06-16T10:18:25.027Z,35.60
2017-06-16T10:20:52.568Z,35.70
2017-06-16T10:23:20.097Z,35.60
2017-06-16T10:25:47.621Z,35.50
2017-06-16T10:28:15.161Z,35.30
2017-06-16T10:30:42.683Z,35.30
2017-06-16T10:33:10.250Z,35.40
2017-06-16T10:35:37.797Z,35.70
2017-06-16T10:38:05.344Z,36.00
2017-06-16T10:40:32.864Z,36.10
2017-06-16T10:43:00.414Z,36.20
2017-06-16T10:45:27.966Z,36.20
2017-06-16T10:47:55.515Z,36.00
2017-06-16T10:50:23.092Z,35.80
2017-06-16T10:52:50.623Z,35.70
2017-06-16T10:55:18.158Z,35.70
2017-06-16T10:57:45.682Z,35.50
2017-06-16T11:00:13.252Z,35.20
2017-06-16T11:02:40.779Z,35.10
2017-06-16T11:05:08.329Z,35.00
2017-06-16T11:07:35.875Z,35.00
2017-06-16T11:10:03.410Z,35.00
2017-06-16T11:12:30.945Z,34.90
2017-06-16T11:14:58.467Z,34.70
2017-06-16T11:17:26.009Z,34.40
2017-06-16T11:19:53.562Z,34.40
2017-06-16T11:22:21.165Z,34.30
2017-06-16T11:24:48.686Z,34.00
2017-06-16T11:27:16.217Z,33.90
2017-06-16T11:29:43.796Z,34.00
2017-06-16T11:32:11.334Z,34.00
2017-06-16T11:34:38.890Z,33.70
2017-06-16T11:37:06.456Z,32.40
2017-06-16T11:39:34.026Z,30.80
2017-06-16T11:42:01.550Z,30.70
2017-06-16T11:44:29.102Z,30.90
2017-06-16T11:46:56.632Z,31.30
2017-06-16T11:49:24.205Z,31.80
2017-06-16T11:51:51.763Z,32.10
2017-06-16T11:54:19.288Z,32.10
2017-06-16T11:56:46.821Z,31.40
2017-06-16T11:59:14.363Z,31.80
2017-06-16T12:01:41.896Z,32.30
2017-06-16T12:04:09.420Z,32.70
2017-06-16T12:06:36.966Z,32.90
2017-06-16T12:09:04.505Z,31.90
2017-06-16T12:11:32.027Z,29.50
2017-06-16T12:13:59.605Z,29.50
2017-06-16T12:16:27.128Z,30.20
2017-06-16T12:18:54.661Z,30.00
2017-06-16T12:21:22.216Z,29.30
2017-06-16T12:23:49.768Z,29.90
2017-06-16T12:26:17.292Z,30.70
2017-06-16T12:28:44.818Z,31.50
2017-06-16T12:31:12.357Z,31.90
2017-06-16T12:33:40.705Z,31.80
2017-06-16T12:36:08.262Z,31.80
2017-06-16T12:38:35.780Z,31.80
2017-06-16T12:41:03.321Z,32.20
2017-06-16T12:43:30.860Z,32.60
2017-06-16T12:45:58.442Z,33.00
2017-06-16T12:48:25.988Z,33.40
2017-06-16T12:50:53.542Z,33.70
2017-06-16T12:53:21.065Z,33.80
2017-06-16T12:55:48.612Z,33.70
2017-06-16T12:58:16.152Z,33.60
2017-06-16T13:00:43.685Z,33.30
2017-06-16T13:03:11.249Z,33.40
2017-06-16T13:05:38.775Z,33.60
2017-06-16T13:08:06.366Z,33.50
2017-06-16T13:10:33.897Z,33.50
2017-06-16T13:13:01.416Z,33.70
2017-06-16T13:15:28.992Z,33.80
2017-06-16T13:17:56.534Z,34.00
2017-06-16T13:20:24.077Z,34.40
2017-06-16T13:22:51.613Z,34.70
2017-06-16T13:25:19.173Z,35.00
2017-06-16T13:27:46.726Z,35.00
2017-06-16T13:30:14.246Z,35.20
2017-06-16T13:32:41.820Z,35.20
2017-06-16T13:35:09.361Z,35.20
2017-06-16T13:37:36.944Z,35.10
2017-06-16T13:40:04.511Z,35.00
2017-06-16T13:42:32.089Z,35.10
2017-06-16T13:44:59.621Z,35.20
2017-06-16T13:47:27.180Z,35.30
2017-06-16T13:49:54.700Z,35.40
2017-06-16T13:52:22.241Z,35.30
2017-06-16T13:54:49.814Z,35.20
2017-06-16T13:57:17.347Z,35.30
2017-06-16T13:59:44.894Z,35.10
2017-06-16T14:02:12.417Z,35.20
2017-06-16T14:04:39.997Z,35.20
2017-06-16T14:07:07.517Z,35.50
2017-06-16T14:09:35.084Z,35.80
2017-06-16T14:12:02.602Z,36.00
2017-06-16T14:14:30.157Z,36.20
2017-06-16T14:16:57.686Z,36.30
2017-06-16T14:19:25.207Z,36.50
2017-06-16T14:21:52.767Z,36.70
2017-06-16T14:24:20.324Z,36.90
2017-06-16T14:26:47.878Z,37.10
2017-06-16T14:29:15.437Z,37.20
2017-06-16T14:31:42.996Z,37.10
2017-06-16T14:34:10.529Z,37.10
2017-06-16T14:36:38.072Z,37.20
2017-06-16T14:39:05.644Z,37.40
2017-06-16T14:41:33.172Z,37.50
2017-06-16T14:44:00.737Z,37.60
2017-06-16T14:46:28.293Z,37.60
2017-06-16T14:48:55.845Z,37.80
2017-06-16T14:51:23.382Z,38.00
2017-06-16T14:53:51.692Z,38.40
2017-06-16T14:56:19.221Z,38.30
2017-06-16T14:58:46.782Z,38.50
2017-06-16T15:01:14.314Z,38.60
2017-06-16T15:03:41.846Z,38.70
2017-06-16T15:06:09.385Z,38.70
2017-06-16T15:08:36.938Z,38.80
2017-06-16T15:11:04.502Z,39.00
2017-06-16T15:13:32.033Z,39.10
2017-06-16T15:16:00.431Z,39.10
2017-06-16T15:18:28.134Z,39.10
2017-06-16T15:20:55.715Z,39.20
2017-06-16T15:23:28.808Z,39.20
2017-06-16T15:25:56.402Z,39.30
2017-06-16T15:28:23.932Z,39.20
2017-06-16T15:30:51.456Z,39.80
2017-06-16T15:33:18.996Z,39.10
2017-06-16T15:35:46.521Z,39.00
2017-06-16T15:38:14.063Z,39.00
2017-06-16T15:40:41.592Z,38.80
2017-06-16T15:43:09.149Z,38.70
2017-06-16T15:45:36.694Z,38.50
2017-06-16T15:48:04.257Z,38.40
2017-06-16T15:50:31.799Z,38.40
2017-06-16T15:52:59.320Z,38.40
2017-06-16T15:55:26.887Z,38.50
2017-06-16T15:57:54.409Z,38.50
2017-06-16T16:00:21.961Z,38.50
2017-06-16T16:02:49.503Z,38.50
2017-06-16T16:05:17.052Z,38.50
2017-06-16T16:07:50.897Z,38.60
2017-06-16T16:10:18.454Z,38.60
2017-06-16T16:12:46.014Z,38.80
2017-06-16T16:15:13.538Z,39.00
2017-06-16T16:17:41.069Z,39.10
2017-06-16T16:20:08.589Z,39.10
2017-06-16T16:22:36.163Z,39.20
2017-06-16T16:25:03.705Z,39.30
2017-06-16T16:27:31.228Z,39.40
2017-06-16T16:29:58.775Z,39.40
2017-06-16T16:32:26.299Z,39.50
2017-06-16T16:34:53.864Z,39.60
2017-06-16T16:37:21.380Z,39.50
2017-06-16T16:39:48.988Z,39.60
2017-06-16T16:42:16.520Z,39.60
2017-06-16T16:44:44.076Z,39.60
2017-06-16T16:47:11.602Z,39.80
2017-06-16T16:49:39.159Z,39.80
2017-06-16T16:52:06.688Z,39.80
2017-06-16T16:54:34.209Z,39.80
2017-06-16T16:57:01.745Z,39.80
2017-06-16T16:59:29.290Z,39.80
2017-06-16T17:01:56.854Z,39.90
2017-06-16T17:04:24.391Z,39.90
2017-06-16T17:06:51.953Z,40.00
2017-06-16T17:09:19.470Z,40.10
2017-06-16T17:11:47.013Z,40.10
2017-06-16T17:14:14.575Z,40.20
2017-06-16T17:16:42.183Z,40.20
2017-06-16T17:19:09.793Z,40.30
2017-06-16T17:21:37.314Z,40.20
2017-06-16T17:24:04.863Z,40.20
2017-06-16T17:26:32.406Z,40.20
2017-06-16T17:28:59.962Z,40.20
2017-06-16T17:31:27.501Z,40.30
2017-06-16T17:33:55.049Z,40.30
2017-06-16T17:36:22.740Z,40.30
2017-06-16T17:38:50.276Z,40.50
2017-06-16T17:41:17.830Z,40.50
2017-06-16T17:43:45.514Z,40.50
2017-06-16T17:46:13.072Z,40.60
2017-06-16T17:48:40.628Z,40.60
2017-06-16T17:51:08.185Z,40.70
2017-06-16T17:53:35.722Z,40.70
2017-06-16T17:56:03.273Z,40.80
2017-06-16T17:58:30.833Z,40.80
2017-06-16T18:00:58.371Z,40.70
2017-06-16T18:03:25.936Z,40.70
2017-06-16T18:05:53.464Z,40.70
2017-06-16T18:08:21.021Z,40.80
2017-06-16T18:10:48.568Z,40.80
2017-06-16T18:13:16.141Z,40.80
2017-06-16T18:15:43.674Z,40.80
2017-06-16T18:18:11.202Z,40.80
2017-06-16T18:20:38.752Z,40.90
2017-06-16T18:23:06.298Z,41.00
2017-06-16T18:25:34.609Z,40.80
2017-06-16T18:28:02.825Z,41.00
2017-06-16T18:30:30.420Z,41.10
2017-06-16T18:32:58.714Z,41.20
2017-06-16T18:35:26.294Z,41.10
2017-06-16T18:37:53.817Z,41.10
2017-06-16T18:40:21.343Z,41.30
2017-06-16T18:42:48.892Z,41.20
2017-06-16T18:45:16.436Z,41.30
2017-06-16T18:47:43.980Z,41.40
2017-06-16T18:50:11.503Z,41.50
2017-06-16T18:52:39.048Z,41.50
2017-06-16T18:55:06.568Z,41.50
2017-06-16T18:57:34.122Z,41.70
2017-06-16T19:00:01.685Z,41.70
2017-06-16T19:02:29.201Z,41.70
2017-06-16T19:04:56.737Z,41.90
2017-06-16T19:07:24.258Z,41.90
2017-06-16T19:09:51.811Z,41.90
2017-06-16T19:12:19.364Z,42.00
2017-06-16T19:14:46.916Z,42.10
2017-06-16T19:17:14.462Z,42.10
2017-06-16T19:19:42.005Z,42.20
2017-06-16T19:22:09.517Z,42.20
2017-06-16T19:24:37.064Z,42.30
2017-06-16T19:27:04.590Z,42.40
2017-06-16T19:29:32.109Z,42.50
2017-06-16T19:31:59.661Z,42.50
2017-06-16T19:34:27.225Z,42.50
2017-06-16T19:36:54.765Z,42.60
2017-06-16T19:39:22.313Z,42.70
2017-06-16T19:41:49.862Z,42.70
2017-06-16T19:44:17.381Z,42.80
2017-06-16T19:46:44.940Z,42.90
2017-06-16T19:49:12.453Z,43.00
2017-06-16T19:51:40.007Z,43.10
2017-06-16T19:54:07.534Z,43.10
2017-06-16T19:56:35.093Z,43.10
2017-06-16T19:59:02.620Z,43.20
2017-06-16T20:01:30.162Z,43.20
2017-06-16T20:03:57.706Z,43.30
2017-06-16T20:06:25.273Z,43.40
2017-06-16T20:08:52.801Z,43.50
2017-06-16T20:11:20.364Z,43.50
2017-06-16T20:13:48.687Z,43.60
2017-06-16T20:16:16.206Z,43.60
2017-06-16T20:18:43.777Z,43.70
2017-06-16T20:21:11.296Z,43.70
2017-06-16T20:23:38.847Z,43.80
2017-06-16T20:26:06.372Z,43.90
2017-06-16T20:28:33.912Z,43.80
2017-06-16T20:31:01.429Z,43.90
2017-06-16T20:33:29.388Z,44.00
2017-06-16T20:35:56.941Z,44.00
2017-06-16T20:38:24.485Z,44.10
2017-06-16T20:40:52.096Z,44.10
2017-06-16T20:43:19.654Z,44.10
2017-06-16T20:45:47.197Z,44.20
2017-06-16T20:48:14.832Z,44.10
2017-06-16T20:50:42.382Z,44.20
2017-06-16T20:53:09.910Z,44.40
2017-06-16T20:55:37.528Z,44.30
2017-06-16T20:58:05.058Z,44.40
2017-06-16T21:00:32.641Z,44.40
2017-06-16T21:03:00.158Z,44.50
2017-06-16T21:05:27.731Z,44.50
2017-06-16T21:07:55.296Z,44.50
2017-06-16T21:10:22.812Z,44.60
2017-06-16T21:12:50.359Z,44.60
2017-06-16T21:15:17.926Z,44.60
2017-06-16T21:17:45.505Z,44.70
2017-06-16T21:20:13.147Z,44.70
2017-06-16T21:22:41.621Z,44.70
2017-06-16T21:25:09.151Z,44.70
2017-06-16T21:27:36.706Z,44.70
2017-06-16T21:30:04.235Z,44.70
2017-06-16T21:32:31.780Z,44.80
2017-06-16T21:34:59.303Z,44.80
2017-06-16T21:37:26.869Z,44.90
2017-06-16T21:39:54.397Z,45.00
2017-06-16T21:42:21.941Z,45.00
2017-06-16T21:44:49.490Z,45.00
2017-06-16T21:47:17.019Z,45.00
2017-06-16T21:49:44.559Z,45.00
2017-06-16T21:52:12.088Z,45.10
2017-06-16T21:54:39.651Z,45.00
2017-06-16T21:57:07.193Z,45.70
2017-06-16T21:59:34.786Z,45.10
2017-06-16T22:02:02.355Z,45.10
2017-06-16T22:04:29.884Z,45.10
2017-06-16T22:06:57.453Z,45.20
2017-06-16T22:09:29.169Z,45.20
2017-06-16T22:11:56.728Z,45.30
2017-06-16T22:14:24.250Z,45.40
2017-06-16T22:16:51.824Z,45.30
2017-06-16T22:19:19.357Z,45.30
2017-06-16T22:21:46.900Z,45.40
2017-06-16T22:24:14.418Z,45.40
2017-06-16T22:26:42.068Z,45.40
2017-06-16T22:29:09.597Z,45.50
2017-06-16T22:31:37.132Z,45.60
2017-06-16T22:34:04.674Z,45.50
2017-06-16T22:36:32.213Z,45.40
2017-06-16T22:38:59.775Z,45.60
2017-06-16T22:41:27.300Z,45.70
2017-06-16T22:43:54.860Z,45.70
2017-06-16T22:46:22.385Z,45.80
2017-06-16T22:48:49.972Z,45.70
2017-06-16T22:51:17.522Z,45.70
2017-06-16T22:53:45.054Z,45.70
2017-06-16T22:56:12.588Z,45.80
2017-06-16T22:58:40.155Z,45.80
2017-06-16T23:01:07.725Z,45.90
2017-06-16T23:03:35.273Z,45.90
2017-06-16T23:06:02.833Z,45.90
2017-06-16T23:08:30.362Z,46.00
2017-06-16T23:10:57.916Z,46.00
2017-06-16T23:13:25.440Z,46.00
2017-06-16T23:15:52.984Z,46.00
2017-06-16T23:18:20.529Z,46.10
2017-06-16T23:20:48.081Z,46.00
2017-06-16T23:23:15.617Z,46.10
2017-06-16T23:25:43.146Z,46.20
2017-06-16T23:28:10.708Z,46.80
2017-06-16T23:30:38.236Z,46.20
2017-06-16T23:33:05.761Z,46.20
2017-06-16T23:35:33.303Z,46.20
2017-06-16T23:38:00.862Z,46.30
2017-06-16T23:40:28.409Z,46.30
2017-06-16T23:42:55.934Z,46.30
2017-06-16T23:45:23.486Z,46.40
2017-06-16T23:47:51.767Z,46.40
2017-06-16T23:50:19.297Z,46.30
2017-06-16T23:52:46.854Z,46.40
2017-06-16T23:55:14.405Z,46.40
2017-06-16T23:57:41.923Z,46.40
